sensor_id;sensor_type;location;lat;lon;timestamp;P1;durP1;ratioP1;P2;durP2;ratioP2
4317;SDS011;2172;53.576;9.934;2022-11-10T00:00:31;8.93;;;6.00;;
4317;SDS011;2172;53.576;9.934;2022-11-10T00:03:18;9.80;;;5.60;;
4317;SDS011;2172;53.576;9.934;2022-11-10T00:06:05;9.43;;;6.67;;
4317;SDS011;2172;53.576;9.934;2022-11-10T00:08:51;9.30;;;6.50;;
4317;SDS011;2172;53.576;9.934;2022-11-10T00:11:37;12.20;;;6.33;;
4317;SDS011;2172;53.576;9.934;2022-11-10T00:14:23;17.50;;;7.13;;
4317;SDS011;2172;53.576;9.934;2022-11-10T00:17:27;19.93;;;8.20;;
4317;SDS011;2172;53.576;9.934;2022-11-10T00:20:14;15.40;;;7.30;;
4317;SDS011;2172;53.576;9.934;2022-11-10T00:23:00;12.70;;;7.20;;
4317;SDS011;2172;53.576;9.934;2022-11-10T00:25:46;12.10;;;7.03;;
4317;SDS011;2172;53.576;9.934;2022-11-10T00:28:33;20.03;;;7.20;;
4317;SDS011;2172;53.576;9.934;2022-11-10T00:31:19;12.53;;;7.87;;
4317;SDS011;2172;53.576;9.934;2022-11-10T00:34:05;13.03;;;7.67;;
4317;SDS011;2172;53.576;9.934;2022-11-10T00:36:52;18.07;;;7.70;;
4317;SDS011;2172;53.576;9.934;2022-11-10T00:39:38;11.77;;;7.00;;
4317;SDS011;2172;53.576;9.934;2022-11-10T00:42:24;14.87;;;7.93;;
4317;SDS011;2172;53.576;9.934;2022-11-10T00:45:11;13.70;;;7.30;;
4317;SDS011;2172;53.576;9.934;2022-11-10T00:47:56;18.10;;;7.20;;
4317;SDS011;2172;53.576;9.934;2022-11-10T00:50:42;12.10;;;8.17;;
4317;SDS011;2172;53.576;9.934;2022-11-10T00:53:29;14.80;;;7.97;;
4317;SDS011;2172;53.576;9.934;2022-11-10T00:56:15;15.27;;;6.97;;
4317;SDS011;2172;53.576;9.934;2022-11-10T00:59:01;11.90;;;7.77;;
4317;SDS011;2172;53.576;9.934;2022-11-10T01:01:47;10.93;;;7.23;;
4317;SDS011;2172;53.576;9.934;2022-11-10T01:04:33;11.10;;;7.47;;
4317;SDS011;2172;53.576;9.934;2022-11-10T01:07:18;19.37;;;8.00;;
4317;SDS011;2172;53.576;9.934;2022-11-10T01:10:07;14.50;;;7.67;;
4317;SDS011;2172;53.576;9.934;2022-11-10T01:12:53;13.67;;;7.60;;
4317;SDS011;2172;53.576;9.934;2022-11-10T01:15:39;12.47;;;6.90;;
4317;SDS011;2172;53.576;9.934;2022-11-10T01:18:26;12.20;;;7.50;;
4317;SDS011;2172;53.576;9.934;2022-11-10T01:21:11;16.87;;;7.77;;
4317;SDS011;2172;53.576;9.934;2022-11-10T01:23:57;10.23;;;7.13;;
4317;SDS011;2172;53.576;9.934;2022-11-10T01:26:44;16.67;;;8.40;;
4317;SDS011;2172;53.576;9.934;2022-11-10T01:29:31;14.90;;;7.50;;
4317;SDS011;2172;53.576;9.934;2022-11-10T01:32:17;10.03;;;6.97;;
4317;SDS011;2172;53.576;9.934;2022-11-10T01:35:03;12.93;;;7.23;;
4317;SDS011;2172;53.576;9.934;2022-11-10T01:37:50;12.07;;;6.87;;
4317;SDS011;2172;53.576;9.934;2022-11-10T01:40:35;11.37;;;7.90;;
4317;SDS011;2172;53.576;9.934;2022-11-10T01:43:24;18.43;;;7.33;;
4317;SDS011;2172;53.576;9.934;2022-11-10T01:46:10;10.17;;;7.20;;
4317;SDS011;2172;53.576;9.934;2022-11-10T01:48:57;10.87;;;6.60;;
4317;SDS011;2172;53.576;9.934;2022-11-10T01:51:46;13.90;;;7.83;;
4317;SDS011;2172;53.576;9.934;2022-11-10T01:54:35;13.00;;;6.80;;
4317;SDS011;2172;53.576;9.934;2022-11-10T01:57:21;15.00;;;7.07;;
4317;SDS011;2172;53.576;9.934;2022-11-10T02:00:09;10.90;;;6.63;;
4317;SDS011;2172;53.576;9.934;2022-11-10T02:02:56;13.50;;;6.77;;
4317;SDS011;2172;53.576;9.934;2022-11-10T02:05:46;13.50;;;6.37;;
4317;SDS011;2172;53.576;9.934;2022-11-10T02:08:32;10.90;;;5.87;;
4317;SDS011;2172;53.576;9.934;2022-11-10T02:11:18;15.63;;;6.27;;
4317;SDS011;2172;53.576;9.934;2022-11-10T02:14:04;16.83;;;7.00;;
4317;SDS011;2172;53.576;9.934;2022-11-10T02:16:52;11.17;;;6.07;;
4317;SDS011;2172;53.576;9.934;2022-11-10T02:19:38;14.53;;;7.13;;
4317;SDS011;2172;53.576;9.934;2022-11-10T02:22:26;15.37;;;7.00;;
4317;SDS011;2172;53.576;9.934;2022-11-10T02:25:12;12.77;;;7.00;;
4317;SDS011;2172;53.576;9.934;2022-11-10T02:27:59;12.57;;;7.57;;
4317;SDS011;2172;53.576;9.934;2022-11-10T02:30:45;15.97;;;7.30;;
4317;SDS011;2172;53.576;9.934;2022-11-10T02:33:31;14.33;;;6.73;;
4317;SDS011;2172;53.576;9.934;2022-11-10T02:36:17;13.30;;;7.20;;
4317;SDS011;2172;53.576;9.934;2022-11-10T02:39:05;13.03;;;7.10;;
4317;SDS011;2172;53.576;9.934;2022-11-10T02:41:51;14.97;;;7.37;;
4317;SDS011;2172;53.576;9.934;2022-11-10T02:44:37;16.90;;;9.07;;
4317;SDS011;2172;53.576;9.934;2022-11-10T02:47:23;14.17;;;8.20;;
4317;SDS011;2172;53.576;9.934;2022-11-10T02:50:09;14.50;;;8.90;;
4317;SDS011;2172;53.576;9.934;2022-11-10T02:52:55;14.30;;;8.27;;
4317;SDS011;2172;53.576;9.934;2022-11-10T02:55:43;13.87;;;8.40;;
4317;SDS011;2172;53.576;9.934;2022-11-10T02:58:29;15.77;;;9.10;;
4317;SDS011;2172;53.576;9.934;2022-11-10T03:01:15;16.43;;;9.60;;
4317;SDS011;2172;53.576;9.934;2022-11-10T03:04:02;17.27;;;8.80;;
4317;SDS011;2172;53.576;9.934;2022-11-10T03:06:48;16.03;;;8.83;;
4317;SDS011;2172;53.576;9.934;2022-11-10T03:09:34;17.33;;;10.57;;
4317;SDS011;2172;53.576;9.934;2022-11-10T03:12:22;17.53;;;10.33;;
4317;SDS011;2172;53.576;9.934;2022-11-10T03:15:08;18.17;;;9.83;;
4317;SDS011;2172;53.576;9.934;2022-11-10T03:17:56;14.20;;;9.70;;
4317;SDS011;2172;53.576;9.934;2022-11-10T03:20:42;20.80;;;9.87;;
4317;SDS011;2172;53.576;9.934;2022-11-10T03:23:28;25.53;;;13.63;;
4317;SDS011;2172;53.576;9.934;2022-11-10T03:26:14;20.20;;;12.10;;
4317;SDS011;2172;53.576;9.934;2022-11-10T03:29:01;21.07;;;12.10;;
4317;SDS011;2172;53.576;9.934;2022-11-10T03:31:47;17.23;;;12.20;;
4317;SDS011;2172;53.576;9.934;2022-11-10T03:34:33;21.97;;;12.30;;
4317;SDS011;2172;53.576;9.934;2022-11-10T03:37:18;16.03;;;11.37;;
4317;SDS011;2172;53.576;9.934;2022-11-10T03:40:05;18.73;;;11.70;;
4317;SDS011;2172;53.576;9.934;2022-11-10T03:42:51;18.77;;;11.90;;
4317;SDS011;2172;53.576;9.934;2022-11-10T03:45:39;21.77;;;11.87;;
4317;SDS011;2172;53.576;9.934;2022-11-10T03:48:26;19.63;;;12.30;;
4317;SDS011;2172;53.576;9.934;2022-11-10T03:51:13;22.87;;;12.40;;
4317;SDS011;2172;53.576;9.934;2022-11-10T03:53:59;21.70;;;12.43;;
4317;SDS011;2172;53.576;9.934;2022-11-10T03:56:44;23.00;;;11.60;;
4317;SDS011;2172;53.576;9.934;2022-11-10T03:59:30;17.70;;;12.00;;
4317;SDS011;2172;53.576;9.934;2022-11-10T04:02:17;37.80;;;13.33;;
4317;SDS011;2172;53.576;9.934;2022-11-10T04:05:04;27.70;;;15.03;;
4317;SDS011;2172;53.576;9.934;2022-11-10T04:08:11;28.43;;;16.43;;
4317;SDS011;2172;53.576;9.934;2022-11-10T04:11:15;23.20;;;14.20;;
4317;SDS011;2172;53.576;9.934;2022-11-10T04:14:21;25.70;;;14.23;;
4317;SDS011;2172;53.576;9.934;2022-11-10T04:17:26;28.97;;;15.73;;
4317;SDS011;2172;53.576;9.934;2022-11-10T04:20:14;29.60;;;16.13;;
4317;SDS011;2172;53.576;9.934;2022-11-10T04:23:00;24.17;;;15.47;;
4317;SDS011;2172;53.576;9.934;2022-11-10T04:26:04;27.00;;;15.70;;
4317;SDS011;2172;53.576;9.934;2022-11-10T04:29:09;23.60;;;16.10;;
4317;SDS011;2172;53.576;9.934;2022-11-10T04:31:55;28.83;;;17.83;;
4317;SDS011;2172;53.576;9.934;2022-11-10T04:34:43;28.90;;;18.20;;
4317;SDS011;2172;53.576;9.934;2022-11-10T04:37:28;35.97;;;19.00;;
4317;SDS011;2172;53.576;9.934;2022-11-10T04:40:14;28.73;;;18.47;;
4317;SDS011;2172;53.576;9.934;2022-11-10T04:43:00;31.00;;;18.67;;
4317;SDS011;2172;53.576;9.934;2022-11-10T04:45:46;37.90;;;20.17;;
4317;SDS011;2172;53.576;9.934;2022-11-10T04:48:33;29.20;;;18.80;;
4317;SDS011;2172;53.576;9.934;2022-11-10T04:51:21;34.03;;;20.70;;
4317;SDS011;2172;53.576;9.934;2022-11-10T04:54:07;32.17;;;22.50;;
4317;SDS011;2172;53.576;9.934;2022-11-10T04:56:53;37.40;;;20.70;;
4317;SDS011;2172;53.576;9.934;2022-11-10T04:59:40;33.37;;;22.20;;
4317;SDS011;2172;53.576;9.934;2022-11-10T05:02:26;44.73;;;24.27;;
4317;SDS011;2172;53.576;9.934;2022-11-10T05:05:12;39.53;;;24.10;;
4317;SDS011;2172;53.576;9.934;2022-11-10T05:08:00;30.83;;;21.90;;
4317;SDS011;2172;53.576;9.934;2022-11-10T05:10:46;39.67;;;21.50;;
4317;SDS011;2172;53.576;9.934;2022-11-10T05:13:32;31.40;;;21.33;;
4317;SDS011;2172;53.576;9.934;2022-11-10T05:16:18;38.73;;;21.37;;
4317;SDS011;2172;53.576;9.934;2022-11-10T05:19:04;35.73;;;21.07;;
4317;SDS011;2172;53.576;9.934;2022-11-10T05:21:50;40.93;;;24.03;;
4317;SDS011;2172;53.576;9.934;2022-11-10T05:24:37;33.07;;;21.13;;
4317;SDS011;2172;53.576;9.934;2022-11-10T05:27:23;31.30;;;19.67;;
4317;SDS011;2172;53.576;9.934;2022-11-10T05:30:10;34.80;;;20.17;;
4317;SDS011;2172;53.576;9.934;2022-11-10T05:32:55;32.20;;;21.40;;
4317;SDS011;2172;53.576;9.934;2022-11-10T05:35:41;29.73;;;19.67;;
4317;SDS011;2172;53.576;9.934;2022-11-10T05:38:27;38.83;;;23.57;;
4317;SDS011;2172;53.576;9.934;2022-11-10T05:41:14;33.17;;;19.50;;
4317;SDS011;2172;53.576;9.934;2022-11-10T05:44:00;32.20;;;19.77;;
4317;SDS011;2172;53.576;9.934;2022-11-10T05:46:46;37.13;;;21.40;;
4317;SDS011;2172;53.576;9.934;2022-11-10T05:49:32;38.27;;;21.30;;
4317;SDS011;2172;53.576;9.934;2022-11-10T05:52:18;37.10;;;19.60;;
4317;SDS011;2172;53.576;9.934;2022-11-10T05:55:04;26.70;;;16.80;;
4317;SDS011;2172;53.576;9.934;2022-11-10T05:57:52;30.20;;;19.63;;
4317;SDS011;2172;53.576;9.934;2022-11-10T06:00:38;30.27;;;17.03;;
4317;SDS011;2172;53.576;9.934;2022-11-10T06:03:24;30.20;;;16.73;;
4317;SDS011;2172;53.576;9.934;2022-11-10T06:06:10;36.80;;;17.87;;
4317;SDS011;2172;53.576;9.934;2022-11-10T06:08:56;33.13;;;17.70;;
4317;SDS011;2172;53.576;9.934;2022-11-10T06:11:42;38.33;;;17.43;;
4317;SDS011;2172;53.576;9.934;2022-11-10T06:14:30;33.83;;;17.93;;
4317;SDS011;2172;53.576;9.934;2022-11-10T06:17:16;30.97;;;15.67;;
4317;SDS011;2172;53.576;9.934;2022-11-10T06:20:02;33.63;;;16.23;;
4317;SDS011;2172;53.576;9.934;2022-11-10T06:22:58;29.43;;;17.40;;
4317;SDS011;2172;53.576;9.934;2022-11-10T06:25:44;27.97;;;14.97;;
4317;SDS011;2172;53.576;9.934;2022-11-10T06:28:30;30.63;;;15.80;;
4317;SDS011;2172;53.576;9.934;2022-11-10T06:31:18;26.27;;;17.23;;
4317;SDS011;2172;53.576;9.934;2022-11-10T06:34:04;27.40;;;17.53;;
4317;SDS011;2172;53.576;9.934;2022-11-10T06:36:50;33.73;;;17.00;;
4317;SDS011;2172;53.576;9.934;2022-11-10T06:39:36;32.90;;;20.30;;
4317;SDS011;2172;53.576;9.934;2022-11-10T06:42:22;31.37;;;18.43;;
4317;SDS011;2172;53.576;9.934;2022-11-10T06:45:09;26.33;;;16.50;;
4317;SDS011;2172;53.576;9.934;2022-11-10T06:48:00;24.47;;;13.93;;
4317;SDS011;2172;53.576;9.934;2022-11-10T06:50:46;24.93;;;14.80;;
4317;SDS011;2172;53.576;9.934;2022-11-10T06:53:32;25.93;;;14.00;;
4317;SDS011;2172;53.576;9.934;2022-11-10T06:56:18;28.40;;;13.80;;
4317;SDS011;2172;53.576;9.934;2022-11-10T06:59:04;24.47;;;12.87;;
4317;SDS011;2172;53.576;9.934;2022-11-10T07:01:50;24.53;;;12.80;;
4317;SDS011;2172;53.576;9.934;2022-11-10T07:04:37;26.90;;;14.60;;
4317;SDS011;2172;53.576;9.934;2022-11-10T07:07:25;23.13;;;13.87;;
4317;SDS011;2172;53.576;9.934;2022-11-10T07:10:11;27.77;;;12.67;;
4317;SDS011;2172;53.576;9.934;2022-11-10T07:12:57;22.73;;;13.80;;
4317;SDS011;2172;53.576;9.934;2022-11-10T07:15:43;28.63;;;14.10;;
4317;SDS011;2172;53.576;9.934;2022-11-10T07:18:30;34.23;;;14.83;;
4317;SDS011;2172;53.576;9.934;2022-11-10T07:21:17;33.10;;;14.27;;
4317;SDS011;2172;53.576;9.934;2022-11-10T07:24:03;23.13;;;15.90;;
4317;SDS011;2172;53.576;9.934;2022-11-10T07:26:49;27.03;;;15.57;;
4317;SDS011;2172;53.576;9.934;2022-11-10T07:29:35;28.10;;;16.57;;
4317;SDS011;2172;53.576;9.934;2022-11-10T07:32:22;28.87;;;16.30;;
4317;SDS011;2172;53.576;9.934;2022-11-10T07:35:09;30.03;;;16.77;;
4317;SDS011;2172;53.576;9.934;2022-11-10T07:37:57;27.07;;;16.47;;
4317;SDS011;2172;53.576;9.934;2022-11-10T07:40:43;30.77;;;17.77;;
4317;SDS011;2172;53.576;9.934;2022-11-10T07:43:29;31.10;;;17.00;;
4317;SDS011;2172;53.576;9.934;2022-11-10T07:46:15;27.87;;;17.20;;
4317;SDS011;2172;53.576;9.934;2022-11-10T07:49:00;29.60;;;17.30;;
4317;SDS011;2172;53.576;9.934;2022-11-10T07:51:46;30.30;;;18.63;;
4317;SDS011;2172;53.576;9.934;2022-11-10T07:54:34;30.73;;;17.40;;
4317;SDS011;2172;53.576;9.934;2022-11-10T07:57:20;31.47;;;18.33;;
4317;SDS011;2172;53.576;9.934;2022-11-10T08:00:06;24.07;;;17.27;;
4317;SDS011;2172;53.576;9.934;2022-11-10T08:02:59;29.23;;;17.97;;
4317;SDS011;2172;53.576;9.934;2022-11-10T08:05:45;27.53;;;17.50;;
4317;SDS011;2172;53.576;9.934;2022-11-10T08:08:31;33.60;;;18.80;;
4317;SDS011;2172;53.576;9.934;2022-11-10T08:11:19;36.30;;;20.27;;
4317;SDS011;2172;53.576;9.934;2022-11-10T08:14:05;33.33;;;20.30;;
4317;SDS011;2172;53.576;9.934;2022-11-10T08:16:51;35.87;;;20.33;;
4317;SDS011;2172;53.576;9.934;2022-11-10T08:19:37;34.50;;;17.53;;
4317;SDS011;2172;53.576;9.934;2022-11-10T08:22:24;35.00;;;20.57;;
4317;SDS011;2172;53.576;9.934;2022-11-10T08:25:10;29.97;;;17.27;;
4317;SDS011;2172;53.576;9.934;2022-11-10T08:27:58;30.17;;;19.37;;
4317;SDS011;2172;53.576;9.934;2022-11-10T08:30:44;31.33;;;20.67;;
4317;SDS011;2172;53.576;9.934;2022-11-10T08:33:31;30.50;;;19.03;;
4317;SDS011;2172;53.576;9.934;2022-11-10T08:36:17;56.77;;;33.97;;
4317;SDS011;2172;53.576;9.934;2022-11-10T08:39:02;32.70;;;18.50;;
4317;SDS011;2172;53.576;9.934;2022-11-10T08:41:49;40.60;;;21.40;;
4317;SDS011;2172;53.576;9.934;2022-11-10T08:44:36;35.10;;;20.60;;
4317;SDS011;2172;53.576;9.934;2022-11-10T08:47:21;40.03;;;21.03;;
4317;SDS011;2172;53.576;9.934;2022-11-10T08:50:08;40.03;;;20.60;;
4317;SDS011;2172;53.576;9.934;2022-11-10T08:52:54;31.63;;;22.10;;
4317;SDS011;2172;53.576;9.934;2022-11-10T08:55:41;36.50;;;19.90;;
4317;SDS011;2172;53.576;9.934;2022-11-10T08:58:27;37.33;;;20.10;;
4317;SDS011;2172;53.576;9.934;2022-11-10T09:01:15;36.60;;;19.57;;
4317;SDS011;2172;53.576;9.934;2022-11-10T09:04:01;31.80;;;19.37;;
4317;SDS011;2172;53.576;9.934;2022-11-10T09:06:47;34.47;;;18.77;;
4317;SDS011;2172;53.576;9.934;2022-11-10T09:09:33;35.97;;;18.20;;
4317;SDS011;2172;53.576;9.934;2022-11-10T09:12:20;38.90;;;20.80;;
4317;SDS011;2172;53.576;9.934;2022-11-10T09:15:07;31.83;;;20.40;;
4317;SDS011;2172;53.576;9.934;2022-11-10T09:17:55;37.73;;;20.93;;
4317;SDS011;2172;53.576;9.934;2022-11-10T09:20:41;32.33;;;20.90;;
4317;SDS011;2172;53.576;9.934;2022-11-10T09:23:28;33.40;;;19.33;;
4317;SDS011;2172;53.576;9.934;2022-11-10T09:26:13;34.47;;;19.00;;
4317;SDS011;2172;53.576;9.934;2022-11-10T09:28:59;31.00;;;20.97;;
4317;SDS011;2172;53.576;9.934;2022-11-10T09:31:45;32.00;;;18.50;;
4317;SDS011;2172;53.576;9.934;2022-11-10T09:34:33;31.07;;;18.57;;
4317;SDS011;2172;53.576;9.934;2022-11-10T09:37:19;30.90;;;18.73;;
4317;SDS011;2172;53.576;9.934;2022-11-10T09:40:05;31.53;;;19.70;;
4317;SDS011;2172;53.576;9.934;2022-11-10T09:42:53;25.73;;;18.20;;
4317;SDS011;2172;53.576;9.934;2022-11-10T09:45:40;35.20;;;19.57;;
4317;SDS011;2172;53.576;9.934;2022-11-10T09:48:28;42.67;;;19.77;;
4317;SDS011;2172;53.576;9.934;2022-11-10T09:51:17;30.97;;;19.50;;
4317;SDS011;2172;53.576;9.934;2022-11-10T09:54:04;34.10;;;18.53;;
4317;SDS011;2172;53.576;9.934;2022-11-10T09:56:51;25.30;;;17.77;;
4317;SDS011;2172;53.576;9.934;2022-11-10T09:59:40;30.90;;;18.37;;
4317;SDS011;2172;53.576;9.934;2022-11-10T10:02:28;31.17;;;18.60;;
4317;SDS011;2172;53.576;9.934;2022-11-10T10:08:25;31.23;;;17.97;;
4317;SDS011;2172;53.576;9.934;2022-11-10T10:11:16;26.40;;;17.77;;
4317;SDS011;2172;53.576;9.934;2022-11-10T10:14:08;25.40;;;18.03;;
4317;SDS011;2172;53.576;9.934;2022-11-10T10:16:58;29.37;;;17.10;;
4317;SDS011;2172;53.576;9.934;2022-11-10T10:19:47;28.87;;;16.70;;
4317;SDS011;2172;53.576;9.934;2022-11-10T10:22:43;33.80;;;17.23;;
4317;SDS011;2172;53.576;9.934;2022-11-10T10:25:33;30.70;;;17.03;;
4317;SDS011;2172;53.576;9.934;2022-11-10T10:28:24;24.53;;;17.00;;
4317;SDS011;2172;53.576;9.934;2022-11-10T10:31:12;21.43;;;15.53;;
4317;SDS011;2172;53.576;9.934;2022-11-10T10:33:59;30.23;;;17.10;;
4317;SDS011;2172;53.576;9.934;2022-11-10T10:36:46;32.17;;;19.70;;
4317;SDS011;2172;53.576;9.934;2022-11-10T10:39:33;27.60;;;16.67;;
4317;SDS011;2172;53.576;9.934;2022-11-10T10:42:27;31.57;;;18.83;;
4317;SDS011;2172;53.576;9.934;2022-11-10T10:45:14;44.00;;;20.10;;
4317;SDS011;2172;53.576;9.934;2022-11-10T10:48:00;25.70;;;15.90;;
4317;SDS011;2172;53.576;9.934;2022-11-10T10:50:47;30.20;;;16.73;;
4317;SDS011;2172;53.576;9.934;2022-11-10T10:53:37;23.80;;;15.43;;
4317;SDS011;2172;53.576;9.934;2022-11-10T10:56:30;26.00;;;16.00;;
4317;SDS011;2172;53.576;9.934;2022-11-10T10:59:19;27.53;;;15.80;;
4317;SDS011;2172;53.576;9.934;2022-11-10T11:02:10;24.93;;;15.20;;
4317;SDS011;2172;53.576;9.934;2022-11-10T11:05:10;24.13;;;15.83;;
4317;SDS011;2172;53.576;9.934;2022-11-10T11:07:57;25.47;;;14.07;;
4317;SDS011;2172;53.576;9.934;2022-11-10T11:10:44;20.37;;;14.20;;
4317;SDS011;2172;53.576;9.934;2022-11-10T11:13:30;27.40;;;13.50;;
4317;SDS011;2172;53.576;9.934;2022-11-10T11:16:18;23.27;;;14.20;;
4317;SDS011;2172;53.576;9.934;2022-11-10T11:19:06;24.57;;;15.00;;
4317;SDS011;2172;53.576;9.934;2022-11-10T11:22:05;24.33;;;13.70;;
4317;SDS011;2172;53.576;9.934;2022-11-10T11:24:57;23.50;;;14.17;;
4317;SDS011;2172;53.576;9.934;2022-11-10T11:27:47;20.17;;;13.03;;
4317;SDS011;2172;53.576;9.934;2022-11-10T11:30:39;19.63;;;14.17;;
4317;SDS011;2172;53.576;9.934;2022-11-10T11:33:37;21.57;;;13.27;;
4317;SDS011;2172;53.576;9.934;2022-11-10T11:36:28;21.63;;;12.67;;
4317;SDS011;2172;53.576;9.934;2022-11-10T11:39:27;20.63;;;14.03;;
4317;SDS011;2172;53.576;9.934;2022-11-10T11:42:19;22.87;;;14.73;;
4317;SDS011;2172;53.576;9.934;2022-11-10T11:45:16;21.43;;;13.23;;
4317;SDS011;2172;53.576;9.934;2022-11-10T11:48:09;22.10;;;13.70;;
4317;SDS011;2172;53.576;9.934;2022-11-10T11:51:02;18.50;;;13.60;;
4317;SDS011;2172;53.576;9.934;2022-11-10T11:57:11;23.33;;;16.80;;
4317;SDS011;2172;53.576;9.934;2022-11-10T12:00:03;25.60;;;15.73;;
4317;SDS011;2172;53.576;9.934;2022-11-10T12:02:55;24.37;;;14.80;;
4317;SDS011;2172;53.576;9.934;2022-11-10T12:05:50;23.53;;;13.07;;
4317;SDS011;2172;53.576;9.934;2022-11-10T12:08:38;21.27;;;13.30;;
4317;SDS011;2172;53.576;9.934;2022-11-10T12:11:30;17.50;;;12.63;;
4317;SDS011;2172;53.576;9.934;2022-11-10T12:14:24;19.83;;;13.13;;
4317;SDS011;2172;53.576;9.934;2022-11-10T12:17:12;17.60;;;12.20;;
4317;SDS011;2172;53.576;9.934;2022-11-10T12:20:06;27.67;;;13.50;;
4317;SDS011;2172;53.576;9.934;2022-11-10T12:23:00;21.27;;;13.27;;
4317;SDS011;2172;53.576;9.934;2022-11-10T12:25:54;20.37;;;11.73;;
4317;SDS011;2172;53.576;9.934;2022-11-10T12:28:44;17.03;;;12.33;;
4317;SDS011;2172;53.576;9.934;2022-11-10T12:31:33;21.80;;;11.53;;
4317;SDS011;2172;53.576;9.934;2022-11-10T12:34:25;15.87;;;10.80;;
4317;SDS011;2172;53.576;9.934;2022-11-10T12:37:15;14.67;;;10.57;;
4317;SDS011;2172;53.576;9.934;2022-11-10T12:40:03;23.00;;;10.60;;
4317;SDS011;2172;53.576;9.934;2022-11-10T12:42:54;20.50;;;11.57;;
4317;SDS011;2172;53.576;9.934;2022-11-10T12:45:43;14.37;;;10.50;;
4317;SDS011;2172;53.576;9.934;2022-11-10T12:48:30;17.93;;;9.47;;
4317;SDS011;2172;53.576;9.934;2022-11-10T12:51:21;16.97;;;9.60;;
4317;SDS011;2172;53.576;9.934;2022-11-10T12:54:09;19.57;;;10.10;;
4317;SDS011;2172;53.576;9.934;2022-11-10T12:56:57;23.87;;;10.43;;
4317;SDS011;2172;53.576;9.934;2022-11-10T12:59:49;21.90;;;9.80;;
4317;SDS011;2172;53.576;9.934;2022-11-10T13:02:37;14.63;;;10.23;;
4317;SDS011;2172;53.576;9.934;2022-11-10T13:05:25;20.90;;;9.00;;
4317;SDS011;2172;53.576;9.934;2022-11-10T13:08:20;13.20;;;8.57;;
4317;SDS011;2172;53.576;9.934;2022-11-10T13:11:19;17.20;;;9.60;;
4317;SDS011;2172;53.576;9.934;2022-11-10T13:14:18;14.07;;;8.97;;
4317;SDS011;2172;53.576;9.934;2022-11-10T13:17:06;22.50;;;11.00;;
4317;SDS011;2172;53.576;9.934;2022-11-10T13:19:53;19.10;;;9.13;;
4317;SDS011;2172;53.576;9.934;2022-11-10T13:22:39;11.97;;;8.70;;
4317;SDS011;2172;53.576;9.934;2022-11-10T13:28:57;12.57;;;7.53;;
4317;SDS011;2172;53.576;9.934;2022-11-10T13:31:48;13.30;;;8.90;;
4317;SDS011;2172;53.576;9.934;2022-11-10T13:34:37;13.40;;;7.33;;
4317;SDS011;2172;53.576;9.934;2022-11-10T13:37:42;20.10;;;8.97;;
4317;SDS011;2172;53.576;9.934;2022-11-10T13:40:35;10.80;;;6.87;;
4317;SDS011;2172;53.576;9.934;2022-11-10T13:43:24;16.40;;;7.37;;
4317;SDS011;2172;53.576;9.934;2022-11-10T13:46:10;12.53;;;7.00;;
4317;SDS011;2172;53.576;9.934;2022-11-10T13:49:15;13.57;;;7.60;;
4317;SDS011;2172;53.576;9.934;2022-11-10T13:52:07;20.83;;;8.90;;
4317;SDS011;2172;53.576;9.934;2022-11-10T13:54:59;11.13;;;6.63;;
4317;SDS011;2172;53.576;9.934;2022-11-10T13:57:56;17.33;;;7.20;;
4317;SDS011;2172;53.576;9.934;2022-11-10T14:00:46;19.90;;;7.80;;
4317;SDS011;2172;53.576;9.934;2022-11-10T14:03:53;10.70;;;6.83;;
4317;SDS011;2172;53.576;9.934;2022-11-10T14:06:40;14.73;;;6.53;;
4317;SDS011;2172;53.576;9.934;2022-11-10T14:09:31;17.20;;;7.60;;
4317;SDS011;2172;53.576;9.934;2022-11-10T14:12:21;14.57;;;8.10;;
4317;SDS011;2172;53.576;9.934;2022-11-10T14:15:11;23.20;;;8.37;;
4317;SDS011;2172;53.576;9.934;2022-11-10T14:17:57;12.77;;;7.70;;
4317;SDS011;2172;53.576;9.934;2022-11-10T14:20:44;11.77;;;6.93;;
4317;SDS011;2172;53.576;9.934;2022-11-10T14:23:32;18.03;;;6.90;;
4317;SDS011;2172;53.576;9.934;2022-11-10T14:26:22;17.87;;;8.13;;
4317;SDS011;2172;53.576;9.934;2022-11-10T14:29:18;18.83;;;7.40;;
4317;SDS011;2172;53.576;9.934;2022-11-10T14:32:13;17.73;;;8.20;;
4317;SDS011;2172;53.576;9.934;2022-11-10T14:35:00;16.17;;;7.00;;
4317;SDS011;2172;53.576;9.934;2022-11-10T14:37:46;18.43;;;7.50;;
4317;SDS011;2172;53.576;9.934;2022-11-10T14:40:32;14.50;;;6.47;;
4317;SDS011;2172;53.576;9.934;2022-11-10T14:43:27;12.50;;;5.43;;
4317;SDS011;2172;53.576;9.934;2022-11-10T14:46:13;16.43;;;6.30;;
4317;SDS011;2172;53.576;9.934;2022-11-10T14:49:00;12.00;;;6.00;;
4317;SDS011;2172;53.576;9.934;2022-11-10T14:51:47;12.63;;;5.57;;
4317;SDS011;2172;53.576;9.934;2022-11-10T14:54:33;17.40;;;6.47;;
4317;SDS011;2172;53.576;9.934;2022-11-10T14:57:21;13.33;;;5.87;;
4317;SDS011;2172;53.576;9.934;2022-11-10T15:00:10;15.13;;;5.70;;
4317;SDS011;2172;53.576;9.934;2022-11-10T15:02:58;15.83;;;6.53;;
4317;SDS011;2172;53.576;9.934;2022-11-10T15:05:44;12.63;;;6.10;;
4317;SDS011;2172;53.576;9.934;2022-11-10T15:08:31;12.90;;;5.83;;
4317;SDS011;2172;53.576;9.934;2022-11-10T15:11:31;13.93;;;5.73;;
4317;SDS011;2172;53.576;9.934;2022-11-10T15:14:31;16.70;;;7.03;;
4317;SDS011;2172;53.576;9.934;2022-11-10T15:17:18;17.13;;;6.07;;
4317;SDS011;2172;53.576;9.934;2022-11-10T15:20:05;11.37;;;6.03;;
4317;SDS011;2172;53.576;9.934;2022-11-10T15:22:51;13.17;;;6.07;;
4317;SDS011;2172;53.576;9.934;2022-11-10T15:25:38;14.70;;;6.13;;
4317;SDS011;2172;53.576;9.934;2022-11-10T15:28:26;11.93;;;5.50;;
4317;SDS011;2172;53.576;9.934;2022-11-10T15:31:20;15.87;;;5.50;;
4317;SDS011;2172;53.576;9.934;2022-11-10T15:37:17;14.73;;;5.30;;
4317;SDS011;2172;53.576;9.934;2022-11-10T15:43:11;13.80;;;4.97;;
4317;SDS011;2172;53.576;9.934;2022-11-10T15:45:58;8.37;;;4.20;;
4317;SDS011;2172;53.576;9.934;2022-11-10T15:48:45;12.67;;;4.83;;
4317;SDS011;2172;53.576;9.934;2022-11-10T15:51:32;10.13;;;5.73;;
4317;SDS011;2172;53.576;9.934;2022-11-10T15:54:20;9.93;;;4.30;;
4317;SDS011;2172;53.576;9.934;2022-11-10T15:57:08;10.13;;;4.27;;
4317;SDS011;2172;53.576;9.934;2022-11-10T15:59:55;14.40;;;5.20;;
4317;SDS011;2172;53.576;9.934;2022-11-10T16:02:41;18.17;;;5.80;;
4317;SDS011;2172;53.576;9.934;2022-11-10T16:05:28;13.60;;;5.27;;
4317;SDS011;2172;53.576;9.934;2022-11-10T16:08:15;9.53;;;4.87;;
4317;SDS011;2172;53.576;9.934;2022-11-10T16:11:02;12.93;;;4.83;;
4317;SDS011;2172;53.576;9.934;2022-11-10T16:13:49;13.63;;;4.97;;
4317;SDS011;2172;53.576;9.934;2022-11-10T16:16:36;12.73;;;4.80;;
4317;SDS011;2172;53.576;9.934;2022-11-10T16:19:22;15.77;;;4.97;;
4317;SDS011;2172;53.576;9.934;2022-11-10T16:22:08;16.50;;;5.50;;
4317;SDS011;2172;53.576;9.934;2022-11-10T16:24:54;12.00;;;5.00;;
4317;SDS011;2172;53.576;9.934;2022-11-10T16:27:42;12.73;;;3.90;;
4317;SDS011;2172;53.576;9.934;2022-11-10T16:30:28;13.00;;;3.93;;
4317;SDS011;2172;53.576;9.934;2022-11-10T16:33:15;13.50;;;5.00;;
4317;SDS011;2172;53.576;9.934;2022-11-10T16:36:02;9.83;;;4.27;;
4317;SDS011;2172;53.576;9.934;2022-11-10T16:38:48;14.33;;;4.27;;
4317;SDS011;2172;53.576;9.934;2022-11-10T16:41:34;8.77;;;3.73;;
4317;SDS011;2172;53.576;9.934;2022-11-10T16:44:22;11.10;;;3.70;;
4317;SDS011;2172;53.576;9.934;2022-11-10T16:47:08;19.03;;;5.87;;
4317;SDS011;2172;53.576;9.934;2022-11-10T16:50:00;17.10;;;5.90;;
4317;SDS011;2172;53.576;9.934;2022-11-10T16:52:47;15.97;;;5.03;;
4317;SDS011;2172;53.576;9.934;2022-11-10T16:55:33;12.07;;;3.90;;
4317;SDS011;2172;53.576;9.934;2022-11-10T16:58:19;9.83;;;3.50;;
4317;SDS011;2172;53.576;9.934;2022-11-10T17:01:10;10.40;;;3.93;;
4317;SDS011;2172;53.576;9.934;2022-11-10T17:04:01;12.30;;;4.07;;
4317;SDS011;2172;53.576;9.934;2022-11-10T17:06:50;9.00;;;3.37;;
4317;SDS011;2172;53.576;9.934;2022-11-10T17:09:36;12.93;;;4.23;;
4317;SDS011;2172;53.576;9.934;2022-11-10T17:12:22;13.63;;;4.37;;
4317;SDS011;2172;53.576;9.934;2022-11-10T17:15:09;14.17;;;4.60;;